Terminal Aerodrome Forecast
Issued by NWS

Home | Current Version | Previous Version | Text Only | Print | Product List | Glossary On
Versions: 1 2 3 4 5 6 7 8 9 10 11 12 13 14 15 16 17 18 19 20 21
000
FTAK31 PAFA 241739
TAFAUN
TAF
PAUN 241739Z 2418/2518 20017KT P6SM VCSH SCT025 OVC035
      TEMPO 2420/2423 4SM -SHSN SCT015 OVC025
     FM242300 21018G24KT 1SM -SN BKN015 OVC025
     FM250400 23016KT 5SM -SHSN SCT010 OVC020
     FM251200 18018KT 6SM -SHSN OVC025
     FM251600 14020G30KT 1SM -SN BLSN OVC015=

USA.gov is the U.S. government's official web portal to all federal, state and local government web resources and services.